sensor_id;sensor_type;location;lat;lon;timestamp;pressure;altitude;pressure_sealevel;temperature;humidity
20115;BME280;10218;42.874;25.320;2022-09-02T00:01:35;96913.06;;;19.66;100.00
20115;BME280;10218;42.874;25.320;2022-09-02T00:04:11;96911.91;;;19.62;100.00
20115;BME280;10218;42.874;25.320;2022-09-02T00:06:42;96918.00;;;19.46;100.00
20115;BME280;10218;42.874;25.320;2022-09-02T00:09:13;96910.12;;;19.79;100.00
20115;BME280;10218;42.874;25.320;2022-09-02T00:11:41;96916.66;;;19.37;100.00
20115;BME280;10218;42.874;25.320;2022-09-02T00:14:13;96919.44;;;19.48;100.00
20115;BME280;10218;42.874;25.320;2022-09-02T00:16:42;96918.41;;;19.31;100.00
20115;BME280;10218;42.874;25.320;2022-09-02T00:19:12;96907.25;;;19.28;100.00
20115;BME280;10218;42.874;25.320;2022-09-02T00:21:39;96918.28;;;19.14;100.00
20115;BME280;10218;42.874;25.320;2022-09-02T00:24:07;96922.88;;;19.26;100.00
20115;BME280;10218;42.874;25.320;2022-09-02T00:26:35;96920.97;;;19.44;100.00
20115;BME280;10218;42.874;25.320;2022-09-02T00:29:03;96921.03;;;19.38;100.00
20115;BME280;10218;42.874;25.320;2022-09-02T00:31:30;96914.44;;;19.34;100.00
20115;BME280;10218;42.874;25.320;2022-09-02T00:33:59;96916.09;;;19.35;100.00
20115;BME280;10218;42.874;25.320;2022-09-02T00:36:27;96920.63;;;19.11;100.00
20115;BME280;10218;42.874;25.320;2022-09-02T00:38:54;96923.88;;;19.01;100.00
20115;BME280;10218;42.874;25.320;2022-09-02T00:41:24;96929.66;;;19.05;100.00
20115;BME280;10218;42.874;25.320;2022-09-02T00:44:07;96926.41;;;19.14;100.00
20115;BME280;10218;42.874;25.320;2022-09-02T00:46:35;96914.16;;;19.12;100.00
20115;BME280;10218;42.874;25.320;2022-09-02T00:49:26;96912.75;;;19.09;100.00
20115;BME280;10218;42.874;25.320;2022-09-02T00:52:18;96908.56;;;18.95;100.00
20115;BME280;10218;42.874;25.320;2022-09-02T00:54:51;96913.44;;;19.16;100.00
20115;BME280;10218;42.874;25.320;2022-09-02T00:57:26;96905.06;;;19.59;100.00
20115;BME280;10218;42.874;25.320;2022-09-02T01:00:03;96922.19;;;19.18;100.00
20115;BME280;10218;42.874;25.320;2022-09-02T01:02:32;96921.50;;;19.35;100.00
20115;BME280;10218;42.874;25.320;2022-09-02T01:05:00;96932.19;;;19.18;100.00
20115;BME280;10218;42.874;25.320;2022-09-02T01:07:31;96937.13;;;19.21;100.00
20115;BME280;10218;42.874;25.320;2022-09-02T01:10:08;96945.37;;;19.14;100.00
20115;BME280;10218;42.874;25.320;2022-09-02T01:12:36;96939.69;;;19.16;100.00
20115;BME280;10218;42.874;25.320;2022-09-02T01:15:07;96933.38;;;19.22;100.00
20115;BME280;10218;42.874;25.320;2022-09-02T01:17:38;96937.16;;;18.91;100.00
20115;BME280;10218;42.874;25.320;2022-09-02T01:20:14;96943.63;;;19.32;100.00
20115;BME280;10218;42.874;25.320;2022-09-02T01:22:42;96936.19;;;19.27;100.00
20115;BME280;10218;42.874;25.320;2022-09-02T01:25:16;96938.22;;;19.32;100.00
20115;BME280;10218;42.874;25.320;2022-09-02T01:27:45;96936.03;;;19.52;100.00
20115;BME280;10218;42.874;25.320;2022-09-02T01:30:17;96927.22;;;19.68;100.00
20115;BME280;10218;42.874;25.320;2022-09-02T01:32:46;96929.81;;;19.75;100.00
20115;BME280;10218;42.874;25.320;2022-09-02T01:35:13;96937.25;;;19.79;100.00
20115;BME280;10218;42.874;25.320;2022-09-02T01:37:43;96924.75;;;19.90;100.00
20115;BME280;10218;42.874;25.320;2022-09-02T01:40:15;96938.75;;;19.52;100.00
20115;BME280;10218;42.874;25.320;2022-09-02T01:42:46;96940.19;;;19.54;100.00
20115;BME280;10218;42.874;25.320;2022-09-02T01:45:14;96949.25;;;19.60;100.00
20115;BME280;10218;42.874;25.320;2022-09-02T01:47:43;96946.66;;;19.77;100.00
20115;BME280;10218;42.874;25.320;2022-09-02T01:50:11;96949.25;;;19.60;100.00
20115;BME280;10218;42.874;25.320;2022-09-02T01:52:39;96938.06;;;19.68;100.00
20115;BME280;10218;42.874;25.320;2022-09-02T01:55:08;96947.25;;;19.55;100.00
20115;BME280;10218;42.874;25.320;2022-09-02T01:57:37;96940.53;;;19.70;100.00
20115;BME280;10218;42.874;25.320;2022-09-02T02:00:08;96941.62;;;19.80;100.00
20115;BME280;10218;42.874;25.320;2022-09-02T02:02:38;96941.72;;;19.74;100.00
20115;BME280;10218;42.874;25.320;2022-09-02T02:05:07;96941.81;;;20.14;100.00
20115;BME280;10218;42.874;25.320;2022-09-02T02:07:34;96931.13;;;19.84;100.00
20115;BME280;10218;42.874;25.320;2022-09-02T02:10:03;96930.78;;;19.80;100.00
20115;BME280;10218;42.874;25.320;2022-09-02T02:12:30;96927.31;;;19.96;100.00
20115;BME280;10218;42.874;25.320;2022-09-02T02:15:00;96915.53;;;20.14;100.00
20115;BME280;10218;42.874;25.320;2022-09-02T02:17:29;96928.87;;;20.04;100.00
20115;BME280;10218;42.874;25.320;2022-09-02T02:19:56;96933.94;;;19.77;100.00
20115;BME280;10218;42.874;25.320;2022-09-02T02:22:24;96919.66;;;19.93;100.00
20115;BME280;10218;42.874;25.320;2022-09-02T02:24:53;96926.97;;;20.04;100.00
20115;BME280;10218;42.874;25.320;2022-09-02T02:27:22;96921.91;;;20.08;100.00
20115;BME280;10218;42.874;25.320;2022-09-02T02:29:51;96928.06;;;19.80;100.00
20115;BME280;10218;42.874;25.320;2022-09-02T02:32:20;96929.13;;;19.91;100.00
20115;BME280;10218;42.874;25.320;2022-09-02T02:34:47;96928.97;;;19.62;100.00
20115;BME280;10218;42.874;25.320;2022-09-02T02:37:15;96921.31;;;19.71;100.00
20115;BME280;10218;42.874;25.320;2022-09-02T02:39:43;96915.66;;;19.61;100.00
20115;BME280;10218;42.874;25.320;2022-09-02T02:42:11;96920.50;;;19.82;100.00
20115;BME280;10218;42.874;25.320;2022-09-02T02:44:41;96909.28;;;20.14;100.00
20115;BME280;10218;42.874;25.320;2022-09-02T02:47:12;96909.78;;;19.87;100.00
20115;BME280;10218;42.874;25.320;2022-09-02T02:49:42;96898.69;;;19.89;100.00
20115;BME280;10218;42.874;25.320;2022-09-02T02:52:11;96909.66;;;19.94;100.00
20115;BME280;10218;42.874;25.320;2022-09-02T02:54:42;96917.31;;;19.62;100.00
20115;BME280;10218;42.874;25.320;2022-09-02T02:57:11;96920.03;;;19.50;100.00
20115;BME280;10218;42.874;25.320;2022-09-02T02:59:39;96917.44;;;19.55;100.00
20115;BME280;10218;42.874;25.320;2022-09-02T03:02:06;96922.50;;;19.52;100.00
20115;BME280;10218;42.874;25.320;2022-09-02T03:04:35;96920.97;;;19.44;100.00
20115;BME280;10218;42.874;25.320;2022-09-02T03:07:04;96921.56;;;19.58;100.00
20115;BME280;10218;42.874;25.320;2022-09-02T03:09:34;96916.63;;;19.55;100.00
20115;BME280;10218;42.874;25.320;2022-09-02T03:12:04;96915.91;;;19.48;100.00
20115;BME280;10218;42.874;25.320;2022-09-02T03:14:34;96904.13;;;19.54;100.00
20115;BME280;10218;42.874;25.320;2022-09-02T03:17:04;96910.25;;;19.61;100.00
20115;BME280;10218;42.874;25.320;2022-09-02T03:19:31;96907.41;;;19.56;100.00
20115;BME280;10218;42.874;25.320;2022-09-02T03:21:59;96919.91;;;19.57;100.00
20115;BME280;10218;42.874;25.320;2022-09-02T03:24:26;96901.41;;;19.54;100.00
20115;BME280;10218;42.874;25.320;2022-09-02T03:26:55;96928.75;;;19.52;100.00
20115;BME280;10218;42.874;25.320;2022-09-02T03:29:23;96937.56;;;19.48;100.00
20115;BME280;10218;42.874;25.320;2022-09-02T03:31:50;96936.03;;;19.52;100.00
20115;BME280;10218;42.874;25.320;2022-09-02T03:34:22;96935.28;;;19.33;100.00
20115;BME280;10218;42.874;25.320;2022-09-02T03:36:50;96945.09;;;19.46;100.00
20115;BME280;10218;42.874;25.320;2022-09-02T03:39:17;96940.88;;;19.73;100.00
20115;BME280;10218;42.874;25.320;2022-09-02T03:41:46;96934.88;;;19.71;100.00
20115;BME280;10218;42.874;25.320;2022-09-02T03:44:17;96940.28;;;19.71;100.00
20115;BME280;10218;42.874;25.320;2022-09-02T03:46:45;96943.22;;;19.58;100.00
20115;BME280;10218;42.874;25.320;2022-09-02T03:49:12;96945.47;;;19.73;100.00
20115;BME280;10218;42.874;25.320;2022-09-02T03:51:41;96947.63;;;19.71;100.00
20115;BME280;10218;42.874;25.320;2022-09-02T03:54:11;96950.66;;;19.62;100.00
20115;BME280;10218;42.874;25.320;2022-09-02T03:56:39;96941.00;;;19.78;100.00
20115;BME280;10218;42.874;25.320;2022-09-02T03:59:09;96898.00;;;19.70;100.00
20115;BME280;10218;42.874;25.320;2022-09-02T04:01:37;96938.28;;;20.01;100.00
20115;BME280;10218;42.874;25.320;2022-09-02T04:04:05;96932.41;;;20.04;100.00
20115;BME280;10218;42.874;25.320;2022-09-02T04:06:33;96934.00;;;20.29;100.00
20115;BME280;10218;42.874;25.320;2022-09-02T04:09:01;96944.06;;;20.05;100.00
20115;BME280;10218;42.874;25.320;2022-09-02T04:11:30;96941.84;;;19.79;100.00
20115;BME280;10218;42.874;25.320;2022-09-02T04:14:00;96952.44;;;20.03;100.00
20115;BME280;10218;42.874;25.320;2022-09-02T04:16:27;96961.28;;;19.99;100.00
20115;BME280;10218;42.874;25.320;2022-09-02T04:18:58;96961.41;;;20.16;100.00
20115;BME280;10218;42.874;25.320;2022-09-02T04:21:35;96962.56;;;19.96;100.00
20115;BME280;10218;42.874;25.320;2022-09-02T04:24:07;96961.50;;;19.97;100.00
20115;BME280;10218;42.874;25.320;2022-09-02T04:26:36;96967.28;;;20.13;100.00
20115;BME280;10218;42.874;25.320;2022-09-02T04:29:09;96966.00;;;20.15;100.00
20115;BME280;10218;42.874;25.320;2022-09-02T04:31:39;96973.88;;;19.82;100.00
20115;BME280;10218;42.874;25.320;2022-09-02T04:34:09;96970.25;;;20.11;100.00
20115;BME280;10218;42.874;25.320;2022-09-02T04:36:40;96972.47;;;20.26;100.00
20115;BME280;10218;42.874;25.320;2022-09-02T04:39:08;96969.19;;;20.00;100.00
20115;BME280;10218;42.874;25.320;2022-09-02T04:41:35;96980.00;;;20.24;100.00
20115;BME280;10218;42.874;25.320;2022-09-02T04:44:05;96977.91;;;20.26;100.00
20115;BME280;10218;42.874;25.320;2022-09-02T04:46:34;96979.31;;;20.17;100.00
20115;BME280;10218;42.874;25.320;2022-09-02T04:49:04;96983.44;;;20.19;100.00
20115;BME280;10218;42.874;25.320;2022-09-02T04:51:32;96993.84;;;20.34;100.00
20115;BME280;10218;42.874;25.320;2022-09-02T04:54:02;96984.31;;;20.31;100.00
20115;BME280;10218;42.874;25.320;2022-09-02T04:56:30;96984.94;;;20.27;100.00
20115;BME280;10218;42.874;25.320;2022-09-02T04:59:00;96966.81;;;20.39;100.00
20115;BME280;10218;42.874;25.320;2022-09-02T05:01:32;96975.09;;;20.21;100.00
20115;BME280;10218;42.874;25.320;2022-09-02T05:04:01;96977.78;;;20.32;100.00
20115;BME280;10218;42.874;25.320;2022-09-02T05:06:37;96958.16;;;20.54;100.00
20115;BME280;10218;42.874;25.320;2022-09-02T05:09:12;96958.19;;;20.30;100.00
20115;BME280;10218;42.874;25.320;2022-09-02T05:11:40;96965.66;;;20.35;100.00
20115;BME280;10218;42.874;25.320;2022-09-02T05:14:08;96958.28;;;20.59;100.00
20115;BME280;10218;42.874;25.320;2022-09-02T05:16:39;96970.34;;;20.91;100.00
20115;BME280;10218;42.874;25.320;2022-09-02T05:19:11;96975.66;;;20.46;100.00
20115;BME280;10218;42.874;25.320;2022-09-02T05:21:41;96959.97;;;21.16;100.00
20115;BME280;10218;42.874;25.320;2022-09-02T05:24:09;96962.94;;;21.03;100.00
20115;BME280;10218;42.874;25.320;2022-09-02T05:26:37;96974.94;;;21.47;100.00
20115;BME280;10218;42.874;25.320;2022-09-02T05:29:04;96967.87;;;21.63;100.00
20115;BME280;10218;42.874;25.320;2022-09-02T05:31:37;96964.56;;;21.61;100.00
20115;BME280;10218;42.874;25.320;2022-09-02T05:34:09;96969.91;;;21.89;100.00
20115;BME280;10218;42.874;25.320;2022-09-02T05:36:38;96965.53;;;21.55;100.00
20115;BME280;10218;42.874;25.320;2022-09-02T05:39:05;96968.78;;;22.02;100.00
20115;BME280;10218;42.874;25.320;2022-09-02T05:41:33;96969.50;;;21.81;100.00
20115;BME280;10218;42.874;25.320;2022-09-02T05:44:05;96963.44;;;21.28;100.00
20115;BME280;10218;42.874;25.320;2022-09-02T05:46:36;96969.03;;;21.84;100.00
20115;BME280;10218;42.874;25.320;2022-09-02T05:49:04;96965.56;;;21.88;100.00
20115;BME280;10218;42.874;25.320;2022-09-02T05:51:43;96947.28;;;21.84;100.00
20115;BME280;10218;42.874;25.320;2022-09-02T05:54:28;96947.72;;;22.52;100.00
20115;BME280;10218;42.874;25.320;2022-09-02T05:56:59;96937.91;;;23.49;100.00
20115;BME280;10218;42.874;25.320;2022-09-02T05:59:28;96936.50;;;22.92;100.00
20115;BME280;10218;42.874;25.320;2022-09-02T06:01:57;96941.41;;;23.17;100.00
20115;BME280;10218;42.874;25.320;2022-09-02T06:04:26;96941.50;;;22.57;100.00
20115;BME280;10218;42.874;25.320;2022-09-02T06:06:54;96942.44;;;23.11;100.00
20115;BME280;10218;42.874;25.320;2022-09-02T06:09:23;96947.69;;;22.31;100.00
20115;BME280;10218;42.874;25.320;2022-09-02T06:11:53;96948.16;;;22.44;100.00
20115;BME280;10218;42.874;25.320;2022-09-02T06:14:22;96936.50;;;22.92;100.00
20115;BME280;10218;42.874;25.320;2022-09-02T06:16:53;96937.34;;;22.71;100.00
20115;BME280;10218;42.874;25.320;2022-09-02T06:19:22;96942.63;;;22.61;100.00
20115;BME280;10218;42.874;25.320;2022-09-02T06:21:53;96956.84;;;23.33;100.00
20115;BME280;10218;42.874;25.320;2022-09-02T06:24:23;96949.16;;;23.03;100.00
20115;BME280;10218;42.874;25.320;2022-09-02T06:26:53;96950.44;;;23.76;100.00
20115;BME280;10218;42.874;25.320;2022-09-02T06:29:23;96955.44;;;23.58;100.00
20115;BME280;10218;42.874;25.320;2022-09-02T06:31:51;96961.84;;;22.49;100.00
20115;BME280;10218;42.874;25.320;2022-09-02T06:34:22;96949.06;;;22.93;100.00
20115;BME280;10218;42.874;25.320;2022-09-02T06:36:50;96960.69;;;23.37;100.00
20115;BME280;10218;42.874;25.320;2022-09-02T06:39:20;96958.88;;;23.75;100.00
20115;BME280;10218;42.874;25.320;2022-09-02T06:41:48;96959.50;;;23.28;100.00
20115;BME280;10218;42.874;25.320;2022-09-02T06:44:18;96955.38;;;22.99;100.00
20115;BME280;10218;42.874;25.320;2022-09-02T06:46:52;96968.37;;;22.48;100.00
20115;BME280;10218;42.874;25.320;2022-09-02T06:49:22;96975.66;;;22.26;100.00
20115;BME280;10218;42.874;25.320;2022-09-02T06:51:55;96966.66;;;23.08;100.00
20115;BME280;10218;42.874;25.320;2022-09-02T06:54:24;96954.09;;;23.33;100.00
20115;BME280;10218;42.874;25.320;2022-09-02T06:56:54;96968.25;;;23.30;100.00
20115;BME280;10218;42.874;25.320;2022-09-02T06:59:22;96964.81;;;22.91;100.00
20115;BME280;10218;42.874;25.320;2022-09-02T07:01:53;96967.53;;;21.93;100.00
20115;BME280;10218;42.874;25.320;2022-09-02T07:04:21;96981.53;;;22.56;100.00
20115;BME280;10218;42.874;25.320;2022-09-02T07:07:08;96980.09;;;22.92;100.00
20115;BME280;10218;42.874;25.320;2022-09-02T07:09:42;96988.34;;;22.37;100.00
20115;BME280;10218;42.874;25.320;2022-09-02T07:12:11;96977.25;;;23.04;100.00
20115;BME280;10218;42.874;25.320;2022-09-02T07:14:42;96986.28;;;23.31;100.00
20115;BME280;10218;42.874;25.320;2022-09-02T07:17:13;96985.16;;;23.54;100.00
20115;BME280;10218;42.874;25.320;2022-09-02T07:19:45;96977.88;;;23.97;100.00
20115;BME280;10218;42.874;25.320;2022-09-02T07:22:13;96991.78;;;23.63;100.00
20115;BME280;10218;42.874;25.320;2022-09-02T07:24:42;96987.47;;;24.04;100.00
20115;BME280;10218;42.874;25.320;2022-09-02T07:27:09;96992.19;;;23.77;100.00
20115;BME280;10218;42.874;25.320;2022-09-02T07:29:37;96998.75;;;23.81;100.00
20115;BME280;10218;42.874;25.320;2022-09-02T07:32:04;96998.63;;;22.90;100.00
20115;BME280;10218;42.874;25.320;2022-09-02T07:34:33;96990.97;;;23.14;100.00
20115;BME280;10218;42.874;25.320;2022-09-02T07:37:07;97000.03;;;23.73;100.00
20115;BME280;10218;42.874;25.320;2022-09-02T07:39:38;96984.88;;;23.29;100.00
20115;BME280;10218;42.874;25.320;2022-09-02T07:42:05;96991.28;;;23.18;100.00
20115;BME280;10218;42.874;25.320;2022-09-02T07:44:33;96999.94;;;22.88;100.00
20115;BME280;10218;42.874;25.320;2022-09-02T07:47:02;96992.22;;;23.28;100.00
20115;BME280;10218;42.874;25.320;2022-09-02T07:49:37;96996.19;;;22.94;100.00
20115;BME280;10218;42.874;25.320;2022-09-02T07:52:26;96994.19;;;22.68;100.00
20115;BME280;10218;42.874;25.320;2022-09-02T07:54:57;97004.81;;;23.34;100.00
20115;BME280;10218;42.874;25.320;2022-09-02T07:57:29;96986.91;;;22.51;100.00
20115;BME280;10218;42.874;25.320;2022-09-02T07:59:58;97013.81;;;22.48;100.00
20115;BME280;10218;42.874;25.320;2022-09-02T08:02:26;97012.19;;;22.69;100.00
20115;BME280;10218;42.874;25.320;2022-09-02T08:04:59;97014.41;;;22.50;100.00
20115;BME280;10218;42.874;25.320;2022-09-02T08:07:35;97015.84;;;22.57;100.00
20115;BME280;10218;42.874;25.320;2022-09-02T08:10:04;97015.63;;;22.42;100.00
20115;BME280;10218;42.874;25.320;2022-09-02T08:12:32;97019.75;;;21.61;100.00
20115;BME280;10218;42.874;25.320;2022-09-02T08:15:00;97020.97;;;21.99;100.00
20115;BME280;10218;42.874;25.320;2022-09-02T08:17:28;96994.66;;;21.88;100.00
20115;BME280;10218;42.874;25.320;2022-09-02T08:19:56;97002.94;;;22.31;100.00
20115;BME280;10218;42.874;25.320;2022-09-02T08:22:32;97024.47;;;21.83;100.00
20115;BME280;10218;42.874;25.320;2022-09-02T08:25:00;97031.16;;;22.25;100.00
20115;BME280;10218;42.874;25.320;2022-09-02T08:27:30;97023.41;;;22.34;100.00
20115;BME280;10218;42.874;25.320;2022-09-02T08:30:10;97020.53;;;22.62;100.00
20115;BME280;10218;42.874;25.320;2022-09-02T08:32:47;97017.47;;;22.37;100.00
20115;BME280;10218;42.874;25.320;2022-09-02T08:35:23;97014.31;;;23.05;100.00
20115;BME280;10218;42.874;25.320;2022-09-02T08:38:03;97007.44;;;23.24;100.00
20115;BME280;10218;42.874;25.320;2022-09-02T08:40:47;97009.31;;;22.97;100.00
20115;BME280;10218;42.874;25.320;2022-09-02T08:43:37;96999.91;;;23.31;100.00
20115;BME280;10218;42.874;25.320;2022-09-02T08:46:09;97008.75;;;23.22;100.00
20115;BME280;10218;42.874;25.320;2022-09-02T08:49:18;97008.94;;;23.10;100.00
20115;BME280;10218;42.874;25.320;2022-09-02T08:51:51;97006.13;;;23.54;100.00
20115;BME280;10218;42.874;25.320;2022-09-02T08:54:50;96992.97;;;24.93;100.00
20115;BME280;10218;42.874;25.320;2022-09-02T08:57:25;96979.59;;;25.02;100.00
20115;BME280;10218;42.874;25.320;2022-09-02T08:59:57;96984.03;;;26.75;100.00
20115;BME280;10218;42.874;25.320;2022-09-02T09:03:14;96969.03;;;25.46;100.00
20115;BME280;10218;42.874;25.320;2022-09-02T09:06:24;96973.47;;;25.57;100.00
20115;BME280;10218;42.874;25.320;2022-09-02T09:12:04;96969.09;;;25.76;100.00
20115;BME280;10218;42.874;25.320;2022-09-02T09:15:02;96979.88;;;25.05;100.00
20115;BME280;10218;42.874;25.320;2022-09-02T09:17:50;96983.94;;;24.93;100.00
20115;BME280;10218;42.874;25.320;2022-09-02T09:20:23;96983.06;;;26.30;100.00
20115;BME280;10218;42.874;25.320;2022-09-02T09:22:55;96984.97;;;25.69;100.00
20115;BME280;10218;42.874;25.320;2022-09-02T09:25:23;96990.09;;;24.68;100.00
20115;BME280;10218;42.874;25.320;2022-09-02T09:27:59;96988.78;;;25.58;100.00
20115;BME280;10218;42.874;25.320;2022-09-02T09:30:28;96979.41;;;25.29;100.00
20115;BME280;10218;42.874;25.320;2022-09-02T09:32:57;96987.03;;;25.17;100.00
20115;BME280;10218;42.874;25.320;2022-09-02T09:35:48;96992.09;;;24.36;100.00
20115;BME280;10218;42.874;25.320;2022-09-02T09:38:28;96979.28;;;24.88;100.00
20115;BME280;10218;42.874;25.320;2022-09-02T09:41:16;96999.31;;;23.83;100.00
20115;BME280;10218;42.874;25.320;2022-09-02T09:43:45;97001.72;;;22.99;100.00
20115;BME280;10218;42.874;25.320;2022-09-02T09:46:40;97002.38;;;23.11;100.00
20115;BME280;10218;42.874;25.320;2022-09-02T09:49:07;97002.16;;;23.98;100.00
20115;BME280;10218;42.874;25.320;2022-09-02T09:51:34;96998.47;;;23.82;100.00
20115;BME280;10218;42.874;25.320;2022-09-02T09:54:14;96987.66;;;24.24;100.00
20115;BME280;10218;42.874;25.320;2022-09-02T09:56:42;96992.28;;;22.85;100.00
20115;BME280;10218;42.874;25.320;2022-09-02T09:59:48;96992.38;;;23.43;100.00
20115;BME280;10218;42.874;25.320;2022-09-02T10:02:23;96993.44;;;23.42;100.00
20115;BME280;10218;42.874;25.320;2022-09-02T10:05:09;96990.63;;;23.32;100.00
20115;BME280;10218;42.874;25.320;2022-09-02T10:07:41;96994.72;;;23.08;100.00
20115;BME280;10218;42.874;25.320;2022-09-02T10:10:20;96996.81;;;23.01;100.00
20115;BME280;10218;42.874;25.320;2022-09-02T10:12:51;97004.97;;;22.19;100.00
20115;BME280;10218;42.874;25.320;2022-09-02T10:15:35;97006.75;;;22.30;100.00
20115;BME280;10218;42.874;25.320;2022-09-02T10:18:34;97018.22;;;21.82;100.00
20115;BME280;10218;42.874;25.320;2022-09-02T10:24:41;97019.16;;;22.04;100.00
20115;BME280;10218;42.874;25.320;2022-09-02T10:26:53;97021.69;;;22.11;100.00
20115;BME280;10218;42.874;25.320;2022-09-02T10:35:13;97014.19;;;22.01;100.00
20115;BME280;10218;42.874;25.320;2022-09-02T10:40:28;97005.34;;;22.44;100.00
20115;BME280;10218;42.874;25.320;2022-09-02T10:43:03;96998.13;;;23.20;100.00
20115;BME280;10218;42.874;25.320;2022-09-02T10:45:48;96988.75;;;23.60;100.00
20115;BME280;10218;42.874;25.320;2022-09-02T10:51:15;96977.72;;;25.07;100.00
20115;BME280;10218;42.874;25.320;2022-09-02T10:53:58;96980.69;;;24.49;100.00
20115;BME280;10218;42.874;25.320;2022-09-02T10:56:36;96961.88;;;25.20;100.00
20115;BME280;10218;42.874;25.320;2022-09-02T10:59:13;96970.34;;;24.51;100.00
20115;BME280;10218;42.874;25.320;2022-09-02T11:01:52;96986.03;;;24.28;100.00
20115;BME280;10218;42.874;25.320;2022-09-02T11:04:40;96975.69;;;24.31;100.00
20115;BME280;10218;42.874;25.320;2022-09-02T11:07:15;96963.34;;;25.58;100.00
20115;BME280;10218;42.874;25.320;2022-09-02T11:09:49;96965.34;;;26.82;100.00
20115;BME280;10218;42.874;25.320;2022-09-02T11:12:26;96965.00;;;25.59;100.00
20115;BME280;10218;42.874;25.320;2022-09-02T11:15:30;96977.16;;;25.16;100.00
20115;BME280;10218;42.874;25.320;2022-09-02T11:18:09;96978.50;;;24.98;100.00
20115;BME280;10218;42.874;25.320;2022-09-02T11:20:56;96994.19;;;23.60;100.00
20115;BME280;10218;42.874;25.320;2022-09-02T11:23:41;96989.66;;;23.43;100.00
20115;BME280;10218;42.874;25.320;2022-09-02T11:26:17;96989.59;;;23.38;100.00
20115;BME280;10218;42.874;25.320;2022-09-02T11:29:08;97000.56;;;22.95;100.00
20115;BME280;10218;42.874;25.320;2022-09-02T11:31:49;97010.06;;;23.14;100.00
20115;BME280;10218;42.874;25.320;2022-09-02T11:34:43;97022.00;;;23.35;100.00
20115;BME280;10218;42.874;25.320;2022-09-02T11:37:24;97028.06;;;22.93;100.00
20115;BME280;10218;42.874;25.320;2022-09-02T11:40:26;97031.59;;;22.55;100.00
20115;BME280;10218;42.874;25.320;2022-09-02T11:51:56;97028.06;;;23.64;100.00
20115;BME280;10218;42.874;25.320;2022-09-02T11:54:31;97013.53;;;23.85;100.00
20115;BME280;10218;42.874;25.320;2022-09-02T11:57:03;97007.34;;;23.68;100.00
20115;BME280;10218;42.874;25.320;2022-09-02T12:02:36;96993.09;;;23.93;100.00
20115;BME280;10218;42.874;25.320;2022-09-02T12:08:11;96978.16;;;23.36;100.00
20115;BME280;10218;42.874;25.320;2022-09-02T12:13:34;96957.00;;;23.49;100.00
20115;BME280;10218;42.874;25.320;2022-09-02T12:21:26;96941.91;;;24.47;100.00
20115;BME280;10218;42.874;25.320;2022-09-02T12:31:51;96937.84;;;24.07;100.00
20115;BME280;10218;42.874;25.320;2022-09-02T12:36:57;96949.19;;;23.94;100.00
20115;BME280;10218;42.874;25.320;2022-09-02T12:50:31;96939.47;;;25.28;100.00
20115;BME280;10218;42.874;25.320;2022-09-02T12:58:21;96937.03;;;24.07;100.00
20115;BME280;10218;42.874;25.320;2022-09-02T13:00:57;96925.56;;;24.10;100.00
20115;BME280;10218;42.874;25.320;2022-09-02T13:06:33;96917.03;;;25.26;100.00
20115;BME280;10218;42.874;25.320;2022-09-02T13:17:44;96909.53;;;24.18;100.00
20115;BME280;10218;42.874;25.320;2022-09-02T13:31:30;96890.28;;;25.38;100.00
20115;BME280;10218;42.874;25.320;2022-09-02T13:34:00;96901.25;;;25.73;100.00
20115;BME280;10218;42.874;25.320;2022-09-02T13:36:33;96897.94;;;25.86;100.00
20115;BME280;10218;42.874;25.320;2022-09-02T13:39:26;96905.91;;;25.58;100.00
20115;BME280;10218;42.874;25.320;2022-09-02T13:41:54;96913.78;;;26.30;100.00
20115;BME280;10218;42.874;25.320;2022-09-02T13:44:27;96919.00;;;25.91;100.00
20115;BME280;10218;42.874;25.320;2022-09-02T13:47:04;96917.97;;;24.74;100.00
20115;BME280;10218;42.874;25.320;2022-09-02T13:49:46;96930.03;;;24.78;100.00
20115;BME280;10218;42.874;25.320;2022-09-02T13:52:20;96931.75;;;24.32;100.00
20115;BME280;10218;42.874;25.320;2022-09-02T13:55:00;96924.69;;;24.41;100.00
20115;BME280;10218;42.874;25.320;2022-09-02T13:57:28;96939.06;;;24.84;100.00
20115;BME280;10218;42.874;25.320;2022-09-02T13:59:57;96940.66;;;24.17;100.00
20115;BME280;10218;42.874;25.320;2022-09-02T14:02:26;96945.88;;;23.87;100.00
20115;BME280;10218;42.874;25.320;2022-09-02T14:05:14;96937.00;;;24.49;100.00
20115;BME280;10218;42.874;25.320;2022-09-02T14:07:46;96925.25;;;24.53;100.00
20115;BME280;10218;42.874;25.320;2022-09-02T14:10:17;96936.87;;;23.55;100.00
20115;BME280;10218;42.874;25.320;2022-09-02T14:12:45;96925.56;;;24.57;100.00
20115;BME280;10218;42.874;25.320;2022-09-02T14:15:16;96930.50;;;24.65;100.00
20115;BME280;10218;42.874;25.320;2022-09-02T14:18:18;96929.56;;;23.92;100.00
20115;BME280;10218;42.874;25.320;2022-09-02T14:20:59;96946.31;;;23.74;100.00
20115;BME280;10218;42.874;25.320;2022-09-02T14:23:30;96946.59;;;22.92;100.00
20115;BME280;10218;42.874;25.320;2022-09-02T14:26:01;96946.97;;;23.00;100.00
20115;BME280;10218;42.874;25.320;2022-09-02T14:28:32;96955.44;;;23.04;100.00
20115;BME280;10218;42.874;25.320;2022-09-02T14:31:08;96949.44;;;22.58;100.00
20115;BME280;10218;42.874;25.320;2022-09-02T14:33:48;96955.09;;;22.74;100.00
20115;BME280;10218;42.874;25.320;2022-09-02T14:43:54;96952.50;;;23.37;100.00
20115;BME280;10218;42.874;25.320;2022-09-02T14:46:28;96952.34;;;23.22;100.00
20115;BME280;10218;42.874;25.320;2022-09-02T14:49:02;96945.56;;;22.98;100.00